Terminal Aerodrome Forecast
Issued by NWS

Home | Current Version | Previous Version | Text Only | Print | Product List | Glossary On
Versions: 1 2 3 4 5 6 7 8 9 10 11 12 13 14
000
FTUS43 KAPX 261120
TAFMBL
TAF
KMBL 261120Z 2612/2712 07004KT P6SM SKC
     FM261400 35010KT P6SM SKC
     FM261800 35012G18KT P6SM SCT100
     FM270200 33008KT P6SM SCT100
     FM270500 36007KT P6SM BKN050
      AMD LTD TO CLD VIS AND WIND=

USA.gov is the U.S. government's official web portal to all federal, state and local government web resources and services.